createdAt,value
2023-05-19T00:08:12.090Z,11.24
2023-05-19T00:18:34.613Z,11.20
2023-05-19T00:28:56.334Z,11.05
2023-05-19T00:39:18.218Z,10.68
2023-05-19T00:49:40.450Z,10.46
2023-05-19T01:00:04.256Z,10.29
2023-05-19T01:10:26.246Z,10.16
2023-05-19T01:20:53.588Z,10.03
2023-05-19T01:31:16.874Z,9.85
2023-05-19T01:41:42.368Z,9.70
2023-05-19T01:52:04.517Z,9.51
2023-05-19T02:02:43.980Z,9.43
2023-05-19T02:13:09.316Z,9.35
2023-05-19T02:23:31.160Z,9.19
2023-05-19T02:33:52.929Z,9.28
2023-05-19T02:44:14.772Z,9.20
2023-05-19T02:54:36.660Z,9.17
2023-05-19T03:04:58.456Z,9.02
2023-05-19T03:15:22.949Z,8.82
2023-05-19T03:25:44.948Z,8.72
2023-05-19T03:36:07.232Z,8.73
2023-05-19T03:46:29.130Z,8.70
2023-05-19T03:56:51.287Z,8.73
2023-05-19T04:07:13.121Z,8.87
2023-05-19T04:17:35.179Z,8.84
2023-05-19T04:27:57.929Z,8.97
2023-05-19T04:38:20.274Z,9.22
2023-05-19T04:48:42.801Z,9.46
2023-05-19T04:59:04.742Z,9.77
2023-05-19T05:09:26.719Z,9.98
2023-05-19T05:19:48.916Z,10.15
2023-05-19T05:30:11.036Z,10.37
2023-05-19T05:40:32.908Z,10.63
2023-05-19T05:50:56.867Z,11.19
2023-05-19T06:01:18.716Z,11.75
2023-05-19T06:11:40.552Z,12.36
2023-05-19T06:22:02.475Z,12.84
2023-05-19T06:32:24.380Z,13.41
2023-05-19T06:42:46.299Z,13.92
2023-05-19T06:53:08.075Z,14.49
2023-05-19T07:03:10.084Z,15.16
2023-05-19T07:13:11.638Z,15.91
2023-05-19T07:23:13.278Z,15.72
2023-05-19T07:43:33.588Z,16.49
2023-05-19T07:53:35.124Z,17.01
2023-05-19T08:03:57.817Z,17.33
2023-05-19T08:14:22.259Z,17.71
2023-05-19T08:24:44.683Z,18.19
2023-05-19T08:35:07.641Z,18.19
2023-05-19T08:45:30.678Z,18.44
2023-05-19T08:55:55.510Z,18.70
2023-05-19T09:06:17.381Z,18.61
2023-05-19T09:16:39.261Z,19.04
2023-05-19T09:27:02.276Z,19.32
2023-05-19T09:37:24.794Z,18.70
2023-05-19T09:47:27.887Z,19.09
2023-05-19T09:57:36.942Z,18.63
2023-05-19T10:07:40.538Z,18.59
2023-05-19T10:17:43.411Z,18.39
2023-05-19T10:28:00.650Z,18.35
2023-05-19T10:38:13.326Z,18.46
2023-05-19T10:48:16.799Z,17.97
2023-05-19T10:58:39.594Z,17.97
2023-05-19T11:08:41.556Z,18.03
2023-05-19T11:19:06.105Z,18.12
2023-05-19T11:29:28.269Z,18.22
2023-05-19T11:39:50.222Z,18.21
2023-05-19T11:50:12.794Z,18.30
2023-05-19T12:00:38.976Z,18.23
2023-05-19T12:11:01.021Z,18.31
2023-05-19T12:21:22.970Z,18.40
2023-05-19T12:31:48.307Z,18.51
2023-05-19T12:42:11.412Z,18.56
2023-05-19T12:52:35.590Z,18.79
2023-05-19T13:03:05.694Z,18.85
2023-05-19T13:13:28.025Z,18.89
2023-05-19T13:23:49.936Z,18.88
2023-05-19T13:34:11.735Z,18.89
2023-05-19T13:44:33.569Z,19.07
2023-05-19T13:54:56.665Z,19.08
2023-05-19T14:05:19.078Z,19.04
2023-05-19T14:15:41.311Z,19.25
2023-05-19T14:26:03.157Z,19.05
2023-05-19T14:36:25.025Z,19.24
2023-05-19T14:46:46.993Z,19.27
2023-05-19T14:57:08.843Z,19.26
2023-05-19T15:07:11.106Z,19.23
2023-05-19T15:17:13.027Z,19.44
2023-05-19T15:27:36.445Z,19.35
2023-05-19T15:37:38.010Z,19.48
2023-05-19T15:47:39.485Z,19.47
2023-05-19T15:57:41.334Z,19.40
2023-05-19T16:07:43.165Z,19.56
2023-05-19T16:17:44.806Z,19.44
2023-05-19T16:27:46.466Z,19.39
2023-05-19T16:37:48.551Z,19.36
2023-05-19T16:47:50.058Z,19.28
2023-05-19T16:58:12.147Z,19.18
2023-05-19T17:08:33.907Z,19.23
2023-05-19T17:18:56.029Z,19.08
2023-05-19T17:29:17.933Z,19.01
2023-05-19T17:39:20.163Z,18.94
2023-05-19T17:49:22.979Z,18.87
2023-05-19T17:59:24.962Z,18.82
2023-05-19T18:09:28.918Z,18.74
2023-05-19T18:19:30.734Z,18.64
2023-05-19T18:29:34.227Z,18.51
2023-05-19T18:39:36.865Z,18.43
2023-05-19T18:49:58.925Z,18.32
2023-05-19T19:00:20.778Z,18.11
2023-05-19T19:10:42.640Z,17.95
2023-05-19T19:21:06.039Z,17.77
2023-05-19T19:31:30.852Z,17.65
2023-05-19T19:41:52.707Z,17.31
2023-05-19T19:51:54.222Z,17.30
2023-05-19T20:02:16.119Z,16.97
2023-05-19T20:12:38.256Z,16.83
2023-05-19T20:22:40.208Z,16.63
2023-05-19T20:32:41.881Z,16.39
2023-05-19T20:42:43.492Z,16.14
2023-05-19T20:52:44.975Z,15.88
2023-05-19T21:02:46.580Z,16.00
2023-05-19T21:12:48.111Z,15.80
2023-05-19T21:22:49.593Z,15.39
2023-05-19T21:32:51.316Z,15.43
2023-05-19T21:42:52.929Z,15.20
2023-05-19T21:52:54.762Z,15.09
2023-05-19T22:03:16.764Z,15.20
2023-05-19T22:13:41.020Z,14.80
2023-05-19T22:24:03.031Z,14.77
2023-05-19T22:34:25.161Z,14.97
2023-05-19T22:44:46.924Z,14.72
2023-05-19T22:55:09.319Z,14.63
2023-05-19T23:05:31.236Z,14.47
2023-05-19T23:15:53.098Z,14.37
2023-05-19T23:26:14.936Z,14.27
2023-05-19T23:36:37.026Z,13.88
2023-05-19T23:46:59.021Z,13.83
2023-05-19T23:57:20.974Z,13.71
